메인 페이지
METAR-TAF:

METAR-TAF

공항 :

리스본 포르텔라 국제공항

리스본, 포르투갈

위도: 38-46N, 경도: 009-08W, 고도: 114m

현재 날씨관측

예보는 34분 전, 11:30시(UTC)에 발표되었습니다.
동북동10kt북북동풍과 풍을 오가는
온도 22°C
습도 65%
기압 1016 hPa
시정 10km 이상
고도 2500ft 상공 구름 조금

METAR: LPPT 201130Z 07010KT 030V100 9999 FEW025 22/15 Q1016

시각: 13:04 (12:04 UTC)

예보

예보는 1 시간 4분 전, 11:00시(UTC)에 발표되었습니다.
예보 대상 시간: 20일 12시부터 21일 18시까지 (UTC)
북동8kt
시정 10km 이상
고도 3000ft 상공 구름 보통
일시적
20일 12시부터 21일 06시까지 (UTC)
시정: 8000m
고도 800ft 상공 구름 조금
고도 1500ft 상공 구름 많음
소나기
확률 30% :
일시적
20일 12시부터 21일 03시까지 (UTC)
여러 방향의 바람 10kt, 순간 최대 풍속 25kt
시정: 3000m
고도 1000ft 상공 구름 많음
고도 2500ft 상공 구름 보통, 적란운.
뇌우, 비
전환 중
20일 17시부터 20일 19시까지 (UTC)
남남동8kt
전환 중
20일 19시부터 20일 21시까지 (UTC)
7kt
전환 중
21일 11시부터 21일 13시까지 (UTC)
남동7kt

TAF: LPPT 201100Z 2012/2118 05008KT 9999 SCT030 TEMPO 2012/2106 8000 SHRA FEW008 BKN015 PROB30 TEMPO 2012/2103 VRB10G25KT 3000 TSRA BKN010 SCT025CB BECMG 2017/2019 15008KT BECMG 2019/2021 08007KT BECMG 2111/2113 14007KT

4,000개 이상의 공항 관측 자료 및 예보 (METAR 및 TAF 보고).

지도상에서 검색 가능한 기상관측소가 노란 점과 빨간 점으로 표시되어 있습니다.

기상관측소 명을 보려면 표시 위로 마우스를 이동하세요.

날씨 관측과 예보를 보려면 클릭하세요.

지도 변경 : 확대하려면 엑스 표시가 있는 녹색 버튼, 축소하려면 빼기 표시가 있는 녹색 버튼, 다음 페이지의 지도를 보려면 녹색 화살표를 클릭하세요.


METAR-TAF: